Rechercher aéroport 
image banner adimage banner adimage banner ad
image banner ad

KRBL - Red Bluff Muni

Situé à Red Bluff, United States

ICAO - RBL, IATA -

Données fournies par Airmate  

Information générale

Coordonnées: N40°9'1" W122°15'8"
Élévation : 352 feet MSL.
Variation magnétique : 17° East
Voir autres Aéroports à California

Données opérationnelles

Special qualification required
Heure actuelle UTC:
Heure actuelle locale:
Météo
METAR: KRBL 290854Z AUTO 34003KT 10SM CLR 26/11 A2988 RMK AO2 SLP114 T02560106 50003
TAF: KRBL 290520Z 2906/3006 VRB04KT P6SM FEW250 FM292200 16010KT P6SM SCT250 FM300400 VRB04KT P6SM SCT250
Voir NOTAMs / SUP AIP / TFR affectant cet aéroport [VIEW]
Fréquences de communication: [VIEW]

Pistes:

Identifiant RWYQFULongueur (ft)Largeur (ft)SurfaceLDA (ft)
15168°5431100ASPH
33348°5431100ASPH

Coordonnées de l'aéroport

Adresse: Red Bluff United States

Vue satellite de KRBL